Time;durP1;ratioP1;P1;durP2;ratioP2;P2;SDS_P1;SDS_P2;PMS_P1;PMS_P2;Temp;Humidity;BMP_temperature;BMP_pressure;BME280_temperature;BME280_humidity;BME280_pressure;Samples;Min_cycle;Max_cycle;Signal;HPM_P1;HPM_P2
2022/10/02 00:00:16;;;;;;;;;;;;;;;12.14;77.76563;101332.7;;;;-76
2022/10/02 00:05:15;;;;;;;;;;;;;;;12.22;78.04688;101333.2;;;;-74
2022/10/02 00:10:17;;;;;;;;;;;;;;;12.18;77.9834;101339.3;;;;-75
2022/10/02 00:15:17;;;;;;;;;;;;;;;12.16;77.71289;101345.9;;;;-76
2022/10/02 00:20:14;;;;;;;;;;;;;;;12.1;77.94824;101348.3;;;;-77
2022/10/02 00:24:08;;;;;;;6.3;1.2;;;;;;;;;;;;;-76
2022/10/02 00:25:16;;;;;;;;;;;;;;;12.05;77.3623;101352.3;;;;-78
2022/10/02 00:30:13;;;;;;;;;;;;;;;12.01;77.32031;101362.3;;;;-75
2022/10/02 00:35:34;;;;;;;;;;;;;;;11.96;77.45703;101364.8;;;;-76
2022/10/02 00:40:22;;;;;;;;;;;;;;;11.93;77.19531;101367.6;;;;-76
2022/10/02 00:45:29;;;;;;;;;;;;;;;11.88;77.49805;101369.8;;;;-75
2022/10/02 00:50:20;;;;;;;;;;;;;;;11.89;77.02051;101373.2;;;;-76
2022/10/02 00:54:16;;;;;;;4.5;1;;;;;;;;;;;;;-76
2022/10/02 00:55:23;;;;;;;;;;;;;;;11.89;77.25488;101379.6;;;;-74
2022/10/02 01:00:13;;;;;;;;;;;;;;;11.91;76.8252;101377.8;;;;-75
2022/10/02 01:05:12;;;;;;;;;;;;;;;11.89;77.47949;101380.5;;;;-76
2022/10/02 01:10:12;;;;;;;;;;;;;;;11.85;77.18262;101377.4;;;;-76
2022/10/02 01:15:18;;;;;;;;;;;;;;;11.81;77.56348;101375.6;;;;-75
2022/10/02 01:20:16;;;;;;;;;;;;;;;11.78;77.14746;101384.9;;;;-76
2022/10/02 01:24:12;;;;;;;3.1;0.9;;;;;;;;;;;;;-75
2022/10/02 01:25:11;;;;;;;;;;;;;;;11.74;77.43945;101385.9;;;;-76
2022/10/02 01:30:12;;;;;;;;;;;;;;;11.73;77.21484;101391.1;;;;-76
2022/10/02 01:35:12;;;;;;;;;;;;;;;11.71;76.98828;101392.9;;;;-76
2022/10/02 01:40:12;;;;;;;;;;;;;;;11.72;77.24902;101402.8;;;;-75
2022/10/02 01:45:12;;;;;;;;;;;;;;;11.72;77.72559;101403.7;;;;-76
2022/10/02 01:50:18;;;;;;;;;;;;;;;11.72;77.10449;101402.8;;;;-76
2022/10/02 01:54:17;;;;;;;7.5;1.3;;;;;;;;;;;;;-76
2022/10/02 01:55:25;;;;;;;;;;;;;;;11.74;77.4502;101406.8;;;;-76
2022/10/02 02:00:13;;;;;;;;;;;;;;;11.69;77.46484;101405.6;;;;-76
2022/10/02 02:05:13;;;;;;;;;;;;;;;11.68;77.20703;101408.9;;;;-75
2022/10/02 02:10:16;;;;;;;;;;;;;;;11.67;76.7168;101405.4;;;;-76
2022/10/02 02:15:15;;;;;;;;;;;;;;;11.66;76.80469;101404.1;;;;-75
2022/10/02 02:20:13;;;;;;;;;;;;;;;11.66;76.57129;101405.4;;;;-77
2022/10/02 02:24:17;;;;;;;5.9;1.2;;;;;;;;;;;;;-76
2022/10/02 02:25:14;;;;;;;;;;;;;;;11.63;76.47754;101403.8;;;;-77
2022/10/02 02:30:13;;;;;;;;;;;;;;;11.6;76.28223;101413.2;;;;-76
2022/10/02 02:35:16;;;;;;;;;;;;;;;11.58;76.46777;101415.2;;;;-75
2022/10/02 02:40:12;;;;;;;;;;;;;;;11.54;76.33789;101418.2;;;;-76
2022/10/02 02:45:13;;;;;;;;;;;;;;;11.52;76.29004;101415.8;;;;-76
2022/10/02 02:50:14;;;;;;;;;;;;;;;11.46;76.30273;101420;;;;-76
2022/10/02 02:54:15;;;;;;;4.7;1.2;;;;;;;;;;;;;-77
2022/10/02 02:55:15;;;;;;;;;;;;;;;11.41;76.50488;101418.5;;;;-75
2022/10/02 03:00:13;;;;;;;;;;;;;;;11.41;76.38281;101424.6;;;;-77
2022/10/02 03:05:14;;;;;;;;;;;;;;;11.34;76.24805;101428;;;;-76
2022/10/02 03:10:17;;;;;;;;;;;;;;;11.35;76.24902;101430.1;;;;-77
2022/10/02 03:15:18;;;;;;;;;;;;;;;11.31;76.35352;101435.9;;;;-76
2022/10/02 03:20:15;;;;;;;;;;;;;;;11.3;75.91992;101438.8;;;;-70
2022/10/02 03:24:19;;;;;;;6.4;1.1;;;;;;;;;;;;;-71
2022/10/02 03:25:15;;;;;;;;;;;;;;;11.28;76.03809;101440.6;;;;-71
2022/10/02 03:30:12;;;;;;;;;;;;;;;11.3;75.58691;101449.3;;;;-72
2022/10/02 03:35:13;;;;;;;;;;;;;;;11.33;75.53613;101452.3;;;;-71
2022/10/02 03:40:11;;;;;;;;;;;;;;;11.35;75.49414;101449.8;;;;-71
2022/10/02 03:45:11;;;;;;;;;;;;;;;11.34;75.40527;101451.4;;;;-71
2022/10/02 03:50:12;;;;;;;;;;;;;;;11.37;75.07715;101450;;;;-71
2022/10/02 03:55:16;;;;;;;;;;;;;;;11.4;75.24902;101454.1;;;;-72
2022/10/02 04:00:16;;;;;;;;;;;;;;;11.43;75.00879;101451.5;;;;-72
2022/10/02 04:05:14;;;;;;;;;;;;;;;11.47;74.96289;101454;;;;-71
2022/10/02 04:10:18;;;;;;;;;;;;;;;11.5;75.05469;101460.8;;;;-71
2022/10/02 04:15:19;;;;;;;;;;;;;;;11.53;75.2041;101465.8;;;;-72
2022/10/02 04:20:16;;;;;;;;;;;;;;;11.54;75.32715;101466.2;;;;-71
2022/10/02 04:24:20;;;;;;;4.5;1;;;;;;;;;;;;;-72
2022/10/02 04:25:15;;;;;;;;;;;;;;;11.56;75.55469;101475.8;;;;-71
2022/10/02 04:30:13;;;;;;;;;;;;;;;11.57;74.93359;101469.5;;;;-71
2022/10/02 04:35:15;;;;;;;;;;;;;;;11.58;75.41309;101466.6;;;;-75
2022/10/02 04:40:22;;;;;;;;;;;;;;;11.57;75.10254;101467.7;;;;-77
2022/10/02 04:45:17;;;;;;;;;;;;;;;11.61;75.16211;101470.8;;;;-74
2022/10/02 04:50:19;;;;;;;;;;;;;;;11.62;74.99902;101480.7;;;;-77
2022/10/02 04:54:29;;;;;;;4.6;1.2;;;;;;;;;;;;;-76
2022/10/02 04:55:23;;;;;;;;;;;;;;;11.61;74.91797;101481.5;;;;-76
2022/10/02 05:00:14;;;;;;;;;;;;;;;11.57;74.72266;101479;;;;-76
2022/10/02 05:05:24;;;;;;;;;;;;;;;11.54;74.96289;101484.2;;;;-75
2022/10/02 05:10:17;;;;;;;;;;;;;;;11.51;74.99023;101479.9;;;;-75
2022/10/02 05:15:22;;;;;;;;;;;;;;;11.51;75.1543;101483.2;;;;-77
2022/10/02 05:20:20;;;;;;;;;;;;;;;11.51;75.4668;101497.6;;;;-76
2022/10/02 05:24:26;;;;;;;5.6;1.3;;;;;;;;;;;;;-76
2022/10/02 05:25:21;;;;;;;;;;;;;;;11.52;75.61328;101505.4;;;;-76
2022/10/02 05:30:14;;;;;;;;;;;;;;;11.5;75.6875;101505.9;;;;-76
2022/10/02 05:35:23;;;;;;;;;;;;;;;11.46;76.33496;101510.8;;;;-75
2022/10/02 05:40:17;;;;;;;;;;;;;;;11.45;75.82227;101516.5;;;;-75
2022/10/02 05:45:17;;;;;;;;;;;;;;;11.44;75.97754;101524;;;;-75
2022/10/02 05:50:18;;;;;;;;;;;;;;;11.46;76.02539;101531.3;;;;-75
2022/10/02 05:54:25;;;;;;;5.2;1.4;;;;;;;;;;;;;-77
2022/10/02 05:55:17;;;;;;;;;;;;;;;11.46;76.63477;101537.1;;;;-75
2022/10/02 06:00:19;;;;;;;;;;;;;;;11.45;76.10156;101544.2;;;;-76
2022/10/02 06:05:16;;;;;;;;;;;;;;;11.43;76.45215;101549.6;;;;-76
2022/10/02 06:10:15;;;;;;;;;;;;;;;11.43;76.24316;101556.6;;;;-75
2022/10/02 06:15:21;;;;;;;;;;;;;;;11.46;76.0791;101564.8;;;;-76
2022/10/02 06:20:19;;;;;;;;;;;;;;;11.47;76.59375;101570.1;;;;-77
2022/10/02 06:24:24;;;;;;;6.3;1.3;;;;;;;;;;;;;-75
2022/10/02 06:25:15;;;;;;;;;;;;;;;11.53;76.22559;101577.8;;;;-76
2022/10/02 06:30:13;;;;;;;;;;;;;;;11.61;76.19531;101575.3;;;;-76
2022/10/02 06:35:14;;;;;;;;;;;;;;;11.7;76.08887;101582.9;;;;-77
2022/10/02 06:40:29;;;;;;;;;;;;;;;11.77;76.22363;101592.8;;;;-75
2022/10/02 06:45:17;;;;;;;;;;;;;;;11.85;75.98242;101599.2;;;;-76
2022/10/02 06:50:23;;;;;;;;;;;;;;;11.94;75.83105;101609.7;;;;-76
2022/10/02 06:54:32;;;;;;;5.4;1.3;;;;;;;;;;;;;-75
2022/10/02 06:55:25;;;;;;;;;;;;;;;12.07;75.63086;101619.7;;;;-75
2022/10/02 07:00:16;;;;;;;;;;;;;;;12.19;75.91797;101615.4;;;;-76
2022/10/02 07:05:27;;;;;;;;;;;;;;;12.26;76.20703;101626;;;;-75
2022/10/02 07:10:20;;;;;;;;;;;;;;;12.38;76.18359;101629.7;;;;-76
2022/10/02 07:15:29;;;;;;;;;;;;;;;12.46;75.9541;101631.1;;;;-76
2022/10/02 07:20:21;;;;;;;;;;;;;;;12.56;75.58203;101638.5;;;;-77
2022/10/02 07:24:31;;;;;;;7.5;1.6;;;;;;;;;;;;;-76
2022/10/02 07:25:21;;;;;;;;;;;;;;;12.74;76.10352;101638.8;;;;-76
2022/10/02 07:30:13;;;;;;;;;;;;;;;12.95;75.7373;101642.4;;;;-75
2022/10/02 07:35:21;;;;;;;;;;;;;;;13.15;76.00586;101646.7;;;;-76
2022/10/02 07:40:25;;;;;;;;;;;;;;;13.27;75.4707;101651;;;;-76
2022/10/02 07:45:21;;;;;;;;;;;;;;;13.38;74.99707;101654.2;;;;-76
2022/10/02 07:50:14;;;;;;;;;;;;;;;13.54;74.60156;101657.1;;;;-76
2022/10/02 07:54:48;;;;;;;7.6;1.5;;;;;;;;;;;;;-76
2022/10/02 07:55:17;;;;;;;;;;;;;;;13.74;74.04297;101660.5;;;;-76
2022/10/02 08:00:14;;;;;;;;;;;;;;;13.95;74.0332;101665;;;;-76
2022/10/02 08:05:19;;;;;;;;;;;;;;;14.13;73.57227;101673.2;;;;-77
2022/10/02 08:10:13;;;;;;;;;;;;;;;14.31;73.07715;101676;;;;-71
2022/10/02 08:15:16;;;;;;;;;;;;;;;14.52;72.78711;101684.9;;;;-74
2022/10/02 08:20:18;;;;;;;;;;;;;;;14.72;72.69629;101694.9;;;;-71
2022/10/02 08:24:28;;;;;;;9.6;1.4;;;;;;;;;;;;;-70
2022/10/02 08:25:17;;;;;;;;;;;;;;;14.88;72.33008;101707.4;;;;-71
2022/10/02 08:30:14;;;;;;;;;;;;;;;15.03;72.1875;101705.5;;;;-72
2022/10/02 08:35:14;;;;;;;;;;;;;;;15.28;71.66895;101711.9;;;;-71
2022/10/02 08:40:28;;;;;;;;;;;;;;;15.56;71.28613;101714;;;;-71
2022/10/02 08:45:25;;;;;;;;;;;;;;;15.89;70.28516;101729.5;;;;-71
2022/10/02 08:50:22;;;;;;;;;;;;;;;16.25;69.57617;101735;;;;-70
2022/10/02 08:54:40;;;;;;;11.6;1.8;;;;;;;;;;;;;-70
2022/10/02 08:55:34;;;;;;;;;;;;;;;16.53;68.19141;101740.2;;;;-70
2022/10/02 09:00:15;;;;;;;;;;;;;;;16.41;68.33105;101749.6;;;;-70
2022/10/02 09:05:25;;;;;;;;;;;;;;;16.64;68.3418;101755.9;;;;-69
2022/10/02 09:10:44;;;;;;;;;;;;;;;17;66.97949;101761.1;;;;-70
2022/10/02 09:15:17;;;;;;;;;;;;;;;17.3;66.14355;101755.8;;;;-70
2022/10/02 09:20:22;;;;;;;;;;;;;;;17.53;65.32031;101760.9;;;;-69
2022/10/02 09:24:45;;;;;;;7.2;1.6;;;;;;;;;;;;;-70
2022/10/02 09:25:22;;;;;;;;;;;;;;;17.67;64.96777;101769.5;;;;-71
2022/10/02 09:30:29;;;;;;;;;;;;;;;17.82;64.33398;101768.4;;;;-70
2022/10/02 09:35:41;;;;;;;;;;;;;;;17.93;64.38281;101771.4;;;;-71
2022/10/02 09:40:27;;;;;;;;;;;;;;;17.98;63.38477;101779;;;;-75
2022/10/02 09:45:27;;;;;;;;;;;;;;;17.95;62.89453;101794.1;;;;-75
2022/10/02 09:50:20;;;;;;;;;;;;;;;17.91;62.84277;101794.5;;;;-75
2022/10/02 09:54:43;;;;;;;6.5;1.3;;;;;;;;;;;;;-76
2022/10/02 09:55:22;;;;;;;;;;;;;;;17.96;62.4209;101804.7;;;;-79
2022/10/02 10:00:31;;;;;;;;;;;;;;;18.15;62.43652;101803.1;;;;-75
2022/10/02 10:05:26;;;;;;;;;;;;;;;18.19;62.03223;101804;;;;-74
2022/10/02 10:10:31;;;;;;;;;;;;;;;18.21;62.1377;101811.4;;;;-73
2022/10/02 10:15:21;;;;;;;;;;;;;;;18.15;61.76855;101817.3;;;;-75
2022/10/02 10:20:29;;;;;;;;;;;;;;;18.05;62.39941;101827.3;;;;-75
2022/10/02 10:24:48;;;;;;;8.9;1.5;;;;;;;;;;;;;-74
2022/10/02 10:25:31;;;;;;;;;;;;;;;18.02;62.45215;101831.2;;;;-74
2022/10/02 10:30:21;;;;;;;;;;;;;;;18.04;62.66992;101837.3;;;;-74
2022/10/02 10:35:22;;;;;;;;;;;;;;;18.12;62.90625;101847.2;;;;-73
2022/10/02 10:40:22;;;;;;;;;;;;;;;18.09;62.90234;101846;;;;-74
2022/10/02 10:45:27;;;;;;;;;;;;;;;18.09;62.98145;101850.8;;;;-74
2022/10/02 10:50:22;;;;;;;;;;;;;;;18.14;63.16992;101856.9;;;;-75
2022/10/02 10:54:48;;;;;;;10.9;1.9;;;;;;;;;;;;;-74
2022/10/02 10:55:17;;;;;;;;;;;;;;;18.21;62.99805;101864;;;;-75
2022/10/02 11:00:23;;;;;;;;;;;;;;;18.2;62.60059;101871.6;;;;-69
2022/10/02 11:05:24;;;;;;;;;;;;;;;18.2;63.8584;101878.7;;;;-69
2022/10/02 11:10:22;;;;;;;;;;;;;;;18.23;63.88477;101874.3;;;;-71
2022/10/02 11:15:22;;;;;;;;;;;;;;;18.49;64.72559;101893.1;;;;-70
2022/10/02 11:20:24;;;;;;;;;;;;;;;18.7;63.125;101897.8;;;;-70
2022/10/02 11:24:52;;;;;;;7.9;1.6;;;;;;;;;;;;;-70
2022/10/02 11:25:34;;;;;;;;;;;;;;;18.72;62.28906;101902.2;;;;-70
2022/10/02 11:30:16;;;;;;;;;;;;;;;18.82;62.23438;101908.5;;;;-70
2022/10/02 11:35:23;;;;;;;;;;;;;;;19.04;62.91211;101911.4;;;;-70
2022/10/02 11:40:22;;;;;;;;;;;;;;;19.27;61.65137;101916.2;;;;-75
2022/10/02 11:45:22;;;;;;;;;;;;;;;19.47;62.76953;101919.3;;;;-76
2022/10/02 11:50:37;;;;;;;;;;;;;;;19.48;63.48438;101923.6;;;;-75
2022/10/02 11:54:53;;;;;;;10.4;1.4;;;;;;;;;;;;;-74
2022/10/02 11:55:21;;;;;;;;;;;;;;;19.32;62.61133;101926.4;;;;-73
2022/10/02 12:00:18;;;;;;;;;;;;;;;19.08;62.82715;101933.2;;;;-74
2022/10/02 12:05:23;;;;;;;;;;;;;;;19.16;62.52051;101927.4;;;;-74
2022/10/02 12:10:26;;;;;;;;;;;;;;;19.33;63.97363;101930.5;;;;-74
2022/10/02 12:15:22;;;;;;;;;;;;;;;19.43;63.89746;101934.4;;;;-74
2022/10/02 12:30:16;;;;;;;;;;;;;;;19.6;61.29883;101952.5;;;;-74
2022/10/02 12:35:19;;;;;;;;;;;;;;;19.64;61.77148;101954.8;;;;-74
2022/10/02 12:40:20;;;;;;;;;;;;;;;19.54;61.94922;101960.5;;;;-73
2022/10/02 12:45:34;;;;;;;;;;;;;;;19.63;60.48633;101963.2;;;;-74
2022/10/02 12:50:24;;;;;;;;;;;;;;;19.73;62.5791;101970.1;;;;-75
2022/10/02 12:55:00;;;;;;;6.2;1.3;;;;;;;;;;;;;-75
2022/10/02 12:55:21;;;;;;;;;;;;;;;19.82;61.0918;101972.7;;;;-74
2022/10/02 13:00:15;;;;;;;;;;;;;;;20;62.92285;101973.9;;;;-76
2022/10/02 13:05:39;;;;;;;;;;;;;;;20.26;63.7334;101979.5;;;;-74
2022/10/02 13:10:19;;;;;;;;;;;;;;;20.36;58.70703;101989.1;;;;-75
2022/10/02 13:15:26;;;;;;;;;;;;;;;20.39;59.26855;101993.2;;;;-74
2022/10/02 13:20:15;;;;;;;;;;;;;;;20.27;58.72852;101992;;;;-75
2022/10/02 13:24:58;;;;;;;11.2;1.6;;;;;;;;;;;;;-75
2022/10/02 13:25:22;;;;;;;;;;;;;;;20.3;59.67773;101993.9;;;;-75
2022/10/02 13:30:19;;;;;;;;;;;;;;;20.51;60.42285;101998;;;;-74
2022/10/02 13:35:23;;;;;;;;;;;;;;;20.5;59.44238;102005.2;;;;-74
2022/10/02 13:40:21;;;;;;;;;;;;;;;20.53;61.54004;102003.9;;;;-73
2022/10/02 13:45:18;;;;;;;;;;;;;;;20.44;59.38965;102007.3;;;;-75
2022/10/02 13:50:22;;;;;;;;;;;;;;;20.44;58.85254;102014.4;;;;-73
2022/10/02 13:55:03;;;;;;;8.6;1.4;;;;;;;;;;;;;-75
2022/10/02 13:55:23;;;;;;;;;;;;;;;20.38;59.10645;102018.4;;;;-73
2022/10/02 14:00:13;;;;;;;;;;;;;;;20.23;58.30176;102025.6;;;;-74
2022/10/02 14:05:15;;;;;;;;;;;;;;;20.26;58.3291;102032.2;;;;-75
2022/10/02 14:10:17;;;;;;;;;;;;;;;20.22;58.24316;102029.8;;;;-74
2022/10/02 14:15:22;;;;;;;;;;;;;;;20.15;59.07617;102035.4;;;;-74
2022/10/02 14:20:28;;;;;;;;;;;;;;;19.96;60.12109;102039.3;;;;-74
2022/10/02 14:25:08;;;;;;;5.2;1.2;;;;;;;;;;;;;-73
2022/10/02 14:25:28;;;;;;;;;;;;;;;19.89;60.22559;102040.3;;;;-75
2022/10/02 14:30:16;;;;;;;;;;;;;;;19.92;59.05762;102049.5;;;;-73
2022/10/02 14:35:26;;;;;;;;;;;;;;;19.93;58.43262;102054;;;;-73
2022/10/02 14:40:15;;;;;;;;;;;;;;;19.84;58.77441;102062.3;;;;-73
2022/10/02 14:45:21;;;;;;;;;;;;;;;19.68;58.2627;102060.8;;;;-74
2022/10/02 14:50:32;;;;;;;;;;;;;;;19.64;58.67969;102064;;;;-74
2022/10/02 14:55:06;;;;;;;7.1;1.3;;;;;;;;;;;;;-74
2022/10/02 14:55:24;;;;;;;;;;;;;;;19.63;58.3252;102068.4;;;;-73
2022/10/02 15:00:17;;;;;;;;;;;;;;;19.6;58.46973;102072;;;;-70
2022/10/02 15:05:19;;;;;;;;;;;;;;;19.45;58.14355;102075.8;;;;-74
2022/10/02 15:10:16;;;;;;;;;;;;;;;19.31;58.50098;102087.1;;;;-73
2022/10/02 15:15:16;;;;;;;;;;;;;;;19.21;58.7373;102092.8;;;;-73
2022/10/02 15:20:15;;;;;;;;;;;;;;;19.09;59.19629;102095.5;;;;-74
2022/10/02 15:25:09;;;;;;;5;1.1;;;;;;;;;;;;;-74
2022/10/02 15:25:31;;;;;;;;;;;;;;;18.93;59.35742;102103.5;;;;-74
2022/10/02 15:30:16;;;;;;;;;;;;;;;18.72;60.32715;102111.5;;;;-75
2022/10/02 15:35:21;;;;;;;;;;;;;;;18.59;59.87891;102117.2;;;;-74
2022/10/02 15:40:29;;;;;;;;;;;;;;;18.52;60.04102;102123.2;;;;-74
2022/10/02 15:45:19;;;;;;;;;;;;;;;18.39;60.61133;102131.5;;;;-74
2022/10/02 15:50:20;;;;;;;;;;;;;;;18.33;60.7959;102137.7;;;;-73
2022/10/02 15:55:13;;;;;;;6.8;1.2;;;;;;;;;;;;;-74
2022/10/02 15:55:32;;;;;;;;;;;;;;;18.24;60.7832;102150.5;;;;-74
2022/10/02 16:00:16;;;;;;;;;;;;;;;18.18;60.60547;102154.4;;;;-75
2022/10/02 16:05:17;;;;;;;;;;;;;;;18.05;60.81445;102159.1;;;;-75
2022/10/02 16:10:23;;;;;;;;;;;;;;;17.92;60.8877;102165.8;;;;-74
2022/10/02 16:15:20;;;;;;;;;;;;;;;17.77;60.62988;102179;;;;-74
2022/10/02 16:20:24;;;;;;;;;;;;;;;17.65;61.15527;102187.3;;;;-74
2022/10/02 16:25:13;;;;;;;9;1.4;;;;;;;;;;;;;-74
2022/10/02 16:25:31;;;;;;;;;;;;;;;17.48;61.35742;102197.1;;;;-73
2022/10/02 16:30:14;;;;;;;;;;;;;;;17.34;61.19043;102206.8;;;;-73
2022/10/02 16:35:19;;;;;;;;;;;;;;;17.18;61.4082;102212.5;;;;-76
2022/10/02 16:40:20;;;;;;;;;;;;;;;17;61.5166;102226.1;;;;-74
2022/10/02 16:45:20;;;;;;;;;;;;;;;16.82;61.61719;102231.8;;;;-74
2022/10/02 16:50:17;;;;;;;;;;;;;;;16.64;61.71484;102241.9;;;;-73
2022/10/02 16:55:16;;;;;;;5.2;1.2;;;;;;;;;;;;;-74
2022/10/02 16:55:28;;;;;;;;;;;;;;;16.45;61.9375;102246.8;;;;-74
2022/10/02 17:00:17;;;;;;;;;;;;;;;16.28;62.51172;102256.3;;;;-75
2022/10/02 17:05:16;;;;;;;;;;;;;;;16.1;62.01172;102254.7;;;;-74
2022/10/02 17:10:20;;;;;;;;;;;;;;;15.9;61.87207;102258.1;;;;-74
2022/10/02 17:15:17;;;;;;;;;;;;;;;15.72;62.10547;102272;;;;-73
2022/10/02 17:20:18;;;;;;;;;;;;;;;15.56;62.34277;102284.9;;;;-75
2022/10/02 17:25:25;;;;;;;;;;;;;;;15.36;61.9541;102293.9;;;;-75
2022/10/02 17:25:39;;;;;;;6.5;1.2;;;;;;;;;;;;;-75
2022/10/02 17:30:19;;;;;;;;;;;;;;;15.18;62.19922;102307.4;;;;-76
2022/10/02 17:35:16;;;;;;;;;;;;;;;15;62.48633;102311.8;;;;-74
2022/10/02 17:40:18;;;;;;;;;;;;;;;14.85;62.37598;102314.3;;;;-74
2022/10/02 17:45:25;;;;;;;;;;;;;;;14.69;62.41992;102317.7;;;;-73
2022/10/02 17:50:23;;;;;;;;;;;;;;;14.51;62.85449;102326.9;;;;-74
2022/10/02 18:00:18;;;;;;;;;;;;;;;14.17;62.83008;102340.8;;;;-74
2022/10/02 18:05:27;;;;;;;;;;;;;;;14.02;63.24512;102346.1;;;;-74
2022/10/02 18:10:17;;;;;;;;;;;;;;;13.88;63.42773;102353.7;;;;-75
2022/10/02 18:15:30;;;;;;;;;;;;;;;13.74;63.67676;102361.8;;;;-74
2022/10/02 18:20:14;;;;;;;;;;;;;;;13.65;63.81934;102363.6;;;;-74
2022/10/02 18:25:21;;;;;;;;;;;;;;;13.53;64.18262;102366.1;;;;-74
2022/10/02 18:25:41;;;;;;;5.9;1.2;;;;;;;;;;;;;-74
2022/10/02 18:30:15;;;;;;;;;;;;;;;13.48;64.04004;102363.2;;;;-75
2022/10/02 18:35:30;;;;;;;;;;;;;;;13.41;64.37598;102368.2;;;;-74
2022/10/02 18:40:21;;;;;;;;;;;;;;;13.34;64.74707;102378;;;;-75
2022/10/02 18:45:15;;;;;;;;;;;;;;;13.27;64.74902;102380.9;;;;-73
2022/10/02 18:50:24;;;;;;;;;;;;;;;13.18;64.82422;102378.7;;;;-75
2022/10/02 18:55:20;;;;;;;;;;;;;;;13.07;64.79688;102384.6;;;;-75
2022/10/02 18:55:53;;;;;;;4.7;1;;;;;;;;;;;;;-75
2022/10/02 19:00:17;;;;;;;;;;;;;;;12.99;65.19922;102389.6;;;;-75
2022/10/02 19:05:25;;;;;;;;;;;;;;;12.87;65.14844;102403.8;;;;-75
2022/10/02 19:10:25;;;;;;;;;;;;;;;12.75;65.39746;102415;;;;-75
2022/10/02 19:15:22;;;;;;;;;;;;;;;12.64;65.53906;102421.2;;;;-74
2022/10/02 19:20:23;;;;;;;;;;;;;;;12.58;65.40527;102418.5;;;;-74
2022/10/02 19:25:18;;;;;;;;;;;;;;;12.51;65.60742;102425.2;;;;-74
2022/10/02 19:25:27;;;;;;;3.6;0.8;;;;;;;;;;;;;-74
2022/10/02 19:30:25;;;;;;;;;;;;;;;12.42;65.74023;102434.5;;;;-74
2022/10/02 19:35:18;;;;;;;;;;;;;;;12.33;66.06055;102444.5;;;;-74
2022/10/02 19:40:18;;;;;;;;;;;;;;;12.22;65.65332;102444.6;;;;-75
2022/10/02 19:45:23;;;;;;;;;;;;;;;12.13;65.7959;102440.1;;;;-75
2022/10/02 19:50:22;;;;;;;;;;;;;;;12.04;66.20605;102444.3;;;;-76
2022/10/02 19:55:22;;;;;;;;;;;;;;;11.97;66.02832;102456.2;;;;-75
2022/10/02 19:55:34;;;;;;;3.2;0.9;;;;;;;;;;;;;-75
2022/10/02 20:00:16;;;;;;;;;;;;;;;11.89;66.25098;102447.9;;;;-74
2022/10/02 20:05:17;;;;;;;;;;;;;;;11.82;66.13965;102458.1;;;;-74
2022/10/02 20:10:14;;;;;;;;;;;;;;;11.75;66.10742;102456.6;;;;-75
2022/10/02 20:15:12;;;;;;;;;;;;;;;11.63;66.16797;102464.2;;;;-74
2022/10/02 20:20:15;;;;;;;;;;;;;;;11.54;66.28809;102473.6;;;;-74
2022/10/02 20:25:17;;;;;;;;;;;;;;;11.45;66.40723;102477.2;;;;-74
2022/10/02 20:25:29;;;;;;;3.4;0.8;;;;;;;;;;;;;-74
2022/10/02 20:30:15;;;;;;;;;;;;;;;11.39;66.73145;102483.9;;;;-73
2022/10/02 20:35:14;;;;;;;;;;;;;;;11.29;66.7168;102485.5;;;;-74
2022/10/02 20:40:16;;;;;;;;;;;;;;;11.23;66.87402;102493.9;;;;-78
2022/10/02 20:45:13;;;;;;;;;;;;;;;11.14;66.9375;102502.4;;;;-75
2022/10/02 20:50:22;;;;;;;;;;;;;;;11.07;66.9707;102513.4;;;;-77
2022/10/02 20:55:13;;;;;;;;;;;;;;;11.01;67.00684;102523.1;;;;-77
2022/10/02 20:55:29;;;;;;;4.8;1.1;;;;;;;;;;;;;-77
2022/10/02 21:00:19;;;;;;;;;;;;;;;10.94;66.94141;102533.1;;;;-75
2022/10/02 21:05:24;;;;;;;;;;;;;;;10.91;67.0918;102538.5;;;;-76
2022/10/02 21:10:26;;;;;;;;;;;;;;;10.88;67.10938;102537.5;;;;-70
2022/10/02 21:15:27;;;;;;;;;;;;;;;10.81;66.67578;102539.1;;;;-72
2022/10/02 21:20:24;;;;;;;;;;;;;;;10.75;66.86816;102546.6;;;;-73
2022/10/02 21:25:22;;;;;;;;;;;;;;;10.68;67.06836;102556.8;;;;-71
2022/10/02 21:25:51;;;;;;;6.3;1.3;;;;;;;;;;;;;-71
2022/10/02 21:30:18;;;;;;;;;;;;;;;10.68;67.15723;102566.1;;;;-70
2022/10/02 21:35:30;;;;;;;;;;;;;;;10.57;66.98438;102568.5;;;;-72
2022/10/02 21:40:28;;;;;;;;;;;;;;;10.52;67.1543;102570;;;;-73
2022/10/02 21:45:37;;;;;;;;;;;;;;;10.47;67.05957;102573.5;;;;-71
2022/10/02 21:50:31;;;;;;;;;;;;;;;10.43;66.97461;102576.8;;;;-72
2022/10/02 21:55:24;;;;;;;;;;;;;;;10.41;67.01465;102583.6;;;;-71
2022/10/02 21:55:45;;;;;;;4.5;0.9;;;;;;;;;;;;;-71
2022/10/02 22:00:17;;;;;;;;;;;;;;;10.34;67.05957;102588.3;;;;-70
2022/10/02 22:05:24;;;;;;;;;;;;;;;10.31;67;102585.3;;;;-71
2022/10/02 22:10:17;;;;;;;;;;;;;;;10.26;67.20313;102590.4;;;;-73
2022/10/02 22:15:14;;;;;;;;;;;;;;;10.27;67.04785;102585.3;;;;-72
2022/10/02 22:20:24;;;;;;;;;;;;;;;10.21;67.22852;102584;;;;-71
2022/10/02 22:25:20;;;;;;;;;;;;;;;10.11;67.45801;102587.4;;;;-73
2022/10/02 22:25:39;;;;;;;2.3;0.8;;;;;;;;;;;;;-73
2022/10/02 22:30:21;;;;;;;;;;;;;;;10.04;67.32324;102582.3;;;;-71
2022/10/02 22:35:22;;;;;;;;;;;;;;;10.01;67.16406;102588.4;;;;-71
2022/10/02 22:40:14;;;;;;;;;;;;;;;9.97;67.50293;102589.9;;;;-74
2022/10/02 22:45:18;;;;;;;;;;;;;;;9.95;67.35547;102588.5;;;;-74
2022/10/02 22:50:14;;;;;;;;;;;;;;;9.85;67.2959;102592.6;;;;-75
2022/10/02 22:55:14;;;;;;;;;;;;;;;9.83;67.56836;102600.5;;;;-76
2022/10/02 22:55:28;;;;;;;4.7;0.7;;;;;;;;;;;;;-76
2022/10/02 23:00:15;;;;;;;;;;;;;;;9.8;67.26465;102606.2;;;;-75
2022/10/02 23:05:14;;;;;;;;;;;;;;;9.73;67.37598;102604.4;;;;-70
2022/10/02 23:10:17;;;;;;;;;;;;;;;9.66;67.50977;102610.4;;;;-71
2022/10/02 23:15:21;;;;;;;;;;;;;;;9.67;67.68848;102620.6;;;;-71
2022/10/02 23:20:14;;;;;;;;;;;;;;;9.63;67.38281;102623.4;;;;-72
2022/10/02 23:25:18;;;;;;;;;;;;;;;9.6;67.35742;102625;;;;-73
2022/10/02 23:25:33;;;;;;;3.1;0.9;;;;;;;;;;;;;-73
2022/10/02 23:30:12;;;;;;;;;;;;;;;9.59;67.44336;102625.1;;;;-77
2022/10/02 23:35:14;;;;;;;;;;;;;;;9.61;67.45703;102627.2;;;;-76
2022/10/02 23:40:17;;;;;;;;;;;;;;;9.57;67.47559;102625.1;;;;-75
2022/10/02 23:45:20;;;;;;;;;;;;;;;9.56;67.4502;102625.2;;;;-74
2022/10/02 23:50:21;;;;;;;;;;;;;;;9.57;67.25195;102624.6;;;;-77
2022/10/02 23:55:20;;;;;;;;;;;;;;;9.54;67.55664;102626.8;;;;-74
2022/10/02 23:55:47;;;;;;;2.4;0.7;;;;;;;;;;;;;-74
